createdAt,value
2024-04-25T00:00:01.934Z,5.34
2024-04-25T00:00:12.674Z,5.37
2024-04-25T00:00:23.166Z,5.38
2024-04-25T00:00:34.124Z,5.38
2024-04-25T00:00:45.195Z,5.40
2024-04-25T00:00:55.870Z,5.34
2024-04-25T00:01:06.972Z,5.38
2024-04-25T00:01:17.975Z,5.31
2024-04-25T00:01:29.016Z,5.38
2024-04-25T00:01:39.692Z,5.37
2024-04-25T00:01:50.727Z,5.37
2024-04-25T00:02:01.696Z,5.30
2024-04-25T00:02:12.792Z,5.34
2024-04-25T00:02:23.622Z,5.35
2024-04-25T00:02:34.233Z,5.37
2024-04-25T00:02:45.254Z,5.32
2024-04-25T00:02:55.927Z,5.35
2024-04-25T00:03:06.900Z,5.34
2024-04-25T00:03:17.541Z,5.35
2024-04-25T00:03:28.535Z,5.30
2024-04-25T00:03:39.611Z,5.32
2024-04-25T00:03:50.383Z,5.32
2024-04-25T00:04:01.008Z,5.34
2024-04-25T00:04:11.992Z,5.28
2024-04-25T00:04:22.502Z,5.32
2024-04-25T00:04:33.304Z,5.35
2024-04-25T00:04:44.048Z,5.35
2024-04-25T00:04:55.034Z,5.30
2024-04-25T00:05:06.119Z,5.28
2024-04-25T00:05:16.787Z,5.30
2024-04-25T00:05:27.835Z,5.34
2024-04-25T00:05:38.890Z,5.27
2024-04-25T00:05:49.392Z,5.32
2024-04-25T00:06:00.088Z,5.32
2024-04-25T00:06:11.125Z,5.31
2024-04-25T00:06:22.085Z,5.30
2024-04-25T00:06:33.106Z,5.34
2024-04-25T00:06:43.814Z,5.32
2024-04-25T00:06:54.448Z,5.34
2024-04-25T00:07:04.867Z,5.25
2024-04-25T00:07:15.881Z,5.31
2024-04-25T00:07:26.596Z,5.32
2024-04-25T00:07:37.739Z,5.28
2024-04-25T00:07:48.714Z,5.30
2024-04-25T00:07:59.719Z,5.30
2024-04-25T00:08:10.439Z,5.32
2024-04-25T00:08:21.478Z,5.25
2024-04-25T00:08:32.522Z,5.28
2024-04-25T00:08:43.036Z,5.31
2024-04-25T00:08:53.685Z,5.31
2024-04-25T00:09:04.745Z,5.30
2024-04-25T00:09:15.696Z,5.32
2024-04-25T00:09:26.756Z,5.31
2024-04-25T00:09:37.435Z,5.28
2024-04-25T00:09:48.511Z,5.25
2024-04-25T00:09:59.480Z,5.30
2024-04-25T00:10:10.516Z,5.34
2024-04-25T00:10:21.217Z,5.32
2024-04-25T00:10:31.739Z,5.32
2024-04-25T00:10:42.737Z,5.25
2024-04-25T00:10:53.734Z,5.27
2024-04-25T00:11:04.548Z,5.30
2024-04-25T00:11:15.101Z,5.30
2024-04-25T00:11:26.147Z,5.27
2024-04-25T00:11:36.711Z,5.31
2024-04-25T00:11:47.477Z,5.37
2024-04-25T00:11:58.601Z,5.32
2024-04-25T00:12:09.106Z,5.31
2024-04-25T00:12:19.599Z,5.31
2024-04-25T00:12:30.274Z,5.34
2024-04-25T00:12:41.327Z,5.27
2024-04-25T00:12:52.306Z,5.32
2024-04-25T00:13:03.380Z,5.31
2024-04-25T00:13:14.042Z,5.28
2024-04-25T00:13:25.108Z,5.28
2024-04-25T00:13:36.060Z,5.35
2024-04-25T00:13:47.106Z,5.27
2024-04-25T00:13:57.785Z,5.30
2024-04-25T00:14:08.955Z,5.35
2024-04-25T00:14:19.980Z,5.32
2024-04-25T00:14:30.531Z,5.27
2024-04-25T00:14:41.201Z,5.30
2024-04-25T00:14:52.212Z,5.35
2024-04-25T00:15:03.191Z,5.30
2024-04-25T00:15:14.218Z,5.41
2024-04-25T00:15:24.908Z,5.40
2024-04-25T00:15:36.013Z,5.32
2024-04-25T00:15:47.000Z,5.41
2024-04-25T00:15:58.003Z,5.32
2024-04-25T00:16:08.717Z,5.34
2024-04-25T00:16:19.800Z,5.32
2024-04-25T00:16:30.777Z,5.30
2024-04-25T00:16:41.322Z,5.31
2024-04-25T00:16:52.015Z,5.34
2024-04-25T00:17:03.188Z,5.34
2024-04-25T00:17:13.620Z,5.34
2024-04-25T00:17:24.635Z,5.32
2024-04-25T00:17:35.388Z,5.37
2024-04-25T00:17:46.026Z,5.34
2024-04-25T00:17:56.623Z,5.34
2024-04-25T00:18:07.174Z,5.34
2024-04-25T00:18:17.926Z,5.38
2024-04-25T00:18:28.546Z,5.37
2024-04-25T00:18:39.478Z,5.35
2024-04-25T00:18:50.506Z,5.41
2024-04-25T00:19:01.197Z,5.40
2024-04-25T00:19:12.215Z,5.38
2024-04-25T00:19:23.180Z,5.38
2024-04-25T00:19:34.201Z,5.34
2024-04-25T00:19:44.997Z,5.35
2024-04-25T00:19:55.457Z,5.35
2024-04-25T00:20:06.465Z,5.38
2024-04-25T00:20:17.499Z,5.35
2024-04-25T00:20:28.206Z,5.37
2024-04-25T00:20:38.751Z,5.35
2024-04-25T00:20:49.698Z,5.34
2024-04-25T00:21:00.841Z,5.41
2024-04-25T00:21:11.484Z,5.35
2024-04-25T00:21:22.522Z,5.34
2024-04-25T00:21:33.500Z,5.37
2024-04-25T00:21:44.578Z,5.37
2024-04-25T00:21:55.240Z,5.35
2024-04-25T00:22:06.327Z,5.41
2024-04-25T00:22:17.297Z,5.31
2024-04-25T00:22:28.349Z,5.32
2024-04-25T00:22:39.064Z,5.32
2024-04-25T00:22:50.136Z,5.35
2024-04-25T00:23:01.148Z,5.37
2024-04-25T00:23:12.253Z,5.34
2024-04-25T00:23:22.955Z,5.40
2024-04-25T00:23:34.115Z,5.28
2024-04-25T00:23:44.609Z,5.35
2024-04-25T00:23:55.650Z,5.34
2024-04-25T00:24:06.300Z,5.40
2024-04-25T00:24:17.353Z,5.35
2024-04-25T00:24:28.373Z,5.40
2024-04-25T00:24:39.369Z,5.38
2024-04-25T00:24:50.080Z,5.40
2024-04-25T00:25:01.218Z,5.37
2024-04-25T00:25:12.181Z,5.35
2024-04-25T00:25:23.179Z,5.37
2024-04-25T00:25:33.863Z,5.38
2024-04-25T00:25:44.912Z,5.35
2024-04-25T00:25:55.936Z,5.41
2024-04-25T00:26:06.934Z,5.37
2024-04-25T00:26:17.684Z,5.38
2024-04-25T00:26:28.183Z,5.38
2024-04-25T00:26:39.279Z,5.40
2024-04-25T00:26:50.268Z,5.41
2024-04-25T00:27:00.964Z,5.41
2024-04-25T00:27:12.243Z,5.31
2024-04-25T00:27:22.716Z,5.38
2024-04-25T00:27:33.797Z,5.38
2024-04-25T00:27:44.443Z,5.38
2024-04-25T00:27:55.518Z,5.41
2024-04-25T00:28:06.476Z,5.43
2024-04-25T00:28:17.520Z,5.38
2024-04-25T00:28:28.200Z,5.40
2024-04-25T00:28:39.258Z,5.45
2024-04-25T00:28:50.230Z,5.37
2024-04-25T00:29:03.162Z,5.34
2024-04-25T00:29:12.444Z,5.38
2024-04-25T00:29:23.508Z,5.35
2024-04-25T00:29:34.637Z,5.38
2024-04-25T00:29:45.187Z,5.35
2024-04-25T00:29:55.928Z,5.38
2024-04-25T00:30:06.980Z,5.35
2024-04-25T00:30:17.899Z,5.38
2024-04-25T00:30:28.927Z,5.37
2024-04-25T00:30:39.651Z,5.37
2024-04-25T00:30:50.722Z,5.35
2024-04-25T00:31:01.724Z,5.34
2024-04-25T00:31:12.777Z,5.34
2024-04-25T00:31:23.438Z,5.37
2024-04-25T00:31:34.500Z,5.37
2024-04-25T00:31:45.530Z,5.38
2024-04-25T00:31:56.602Z,5.34
2024-04-25T00:32:07.345Z,5.41
2024-04-25T00:32:18.392Z,5.37
2024-04-25T00:32:29.445Z,5.35
2024-04-25T00:32:40.113Z,5.34
2024-04-25T00:32:50.927Z,5.34
2024-04-25T00:33:01.574Z,5.40
2024-04-25T00:33:12.196Z,5.40
2024-04-25T00:33:22.693Z,5.37
2024-04-25T00:33:33.516Z,5.43
2024-04-25T00:33:44.165Z,5.37
2024-04-25T00:33:54.758Z,5.37
2024-04-25T00:34:05.321Z,5.37
2024-04-25T00:34:16.024Z,5.34
2024-04-25T00:34:27.052Z,5.37
2024-04-25T00:34:38.059Z,5.35
2024-04-25T00:34:49.058Z,5.34
2024-04-25T00:34:59.771Z,5.31
2024-04-25T00:35:10.809Z,5.34
2024-04-25T00:35:21.809Z,5.35
2024-04-25T00:35:32.823Z,5.35
2024-04-25T00:35:43.598Z,5.37
2024-04-25T00:35:54.133Z,5.35
2024-04-25T00:36:05.117Z,5.34
2024-04-25T00:36:16.164Z,5.35
2024-04-25T00:36:26.887Z,5.32
2024-04-25T00:36:37.957Z,5.41
2024-04-25T00:36:48.966Z,5.38
2024-04-25T00:37:00.010Z,5.34
2024-04-25T00:37:10.674Z,5.38
2024-04-25T00:37:21.784Z,5.37
2024-04-25T00:37:32.711Z,5.38
2024-04-25T00:37:43.744Z,5.32
2024-04-25T00:37:54.489Z,5.38
2024-04-25T00:38:05.012Z,5.38
2024-04-25T00:38:16.049Z,5.41
2024-04-25T00:38:26.565Z,5.38
2024-04-25T00:38:37.302Z,5.37
2024-04-25T00:38:47.790Z,5.35
2024-04-25T00:38:58.750Z,5.31
2024-04-25T00:39:09.795Z,5.35
2024-04-25T00:39:20.474Z,5.38
2024-04-25T00:39:31.541Z,5.37
2024-04-25T00:39:42.509Z,5.38
2024-04-25T00:39:53.543Z,5.40
2024-04-25T00:40:04.313Z,5.38
2024-04-25T00:40:14.834Z,5.37
2024-04-25T00:40:25.856Z,5.37
2024-04-25T00:40:36.865Z,5.37
2024-04-25T00:40:47.584Z,5.34
2024-04-25T00:40:58.111Z,5.34
2024-04-25T00:41:09.148Z,5.38
2024-04-25T00:41:20.197Z,5.41
2024-04-25T00:41:30.932Z,5.35
2024-04-25T00:41:41.501Z,5.32
2024-04-25T00:41:52.439Z,5.40
2024-04-25T00:42:03.444Z,5.37
2024-04-25T00:42:14.131Z,5.40
2024-04-25T00:42:25.261Z,5.32
2024-04-25T00:42:36.187Z,5.37
2024-04-25T00:42:47.211Z,5.35
2024-04-25T00:42:57.959Z,5.40
2024-04-25T00:43:08.482Z,5.38
2024-04-25T00:43:19.444Z,5.35
2024-04-25T00:43:30.490Z,5.37
2024-04-25T00:43:41.217Z,5.38
2024-04-25T00:43:51.777Z,5.34
2024-04-25T00:44:02.788Z,5.37
2024-04-25T00:44:13.840Z,5.34
2024-04-25T00:44:24.564Z,5.40
2024-04-25T00:44:35.129Z,5.41
2024-04-25T00:44:46.104Z,5.37
2024-04-25T00:44:57.131Z,5.35
2024-04-25T00:45:07.808Z,5.31
2024-04-25T00:45:18.975Z,5.32
2024-04-25T00:45:29.888Z,5.35
2024-04-25T00:45:40.926Z,5.35
2024-04-25T00:45:51.628Z,5.38
2024-04-25T00:46:02.673Z,5.32
2024-04-25T00:46:13.649Z,5.40
2024-04-25T00:46:24.658Z,5.35
2024-04-25T00:46:35.342Z,5.37
2024-04-25T00:46:46.467Z,5.40
2024-04-25T00:46:57.485Z,5.40
2024-04-25T00:47:08.572Z,5.35
2024-04-25T00:47:19.368Z,5.38
2024-04-25T00:47:29.945Z,5.41
2024-04-25T00:47:41.256Z,5.40
2024-04-25T00:47:51.832Z,5.37
2024-04-25T00:48:02.613Z,5.38
2024-04-25T00:48:13.204Z,5.35
2024-04-25T00:48:23.760Z,5.38
2024-04-25T00:48:34.359Z,5.31
2024-04-25T00:48:45.047Z,5.38
2024-04-25T00:48:55.676Z,5.41
2024-04-25T00:49:06.623Z,5.37
2024-04-25T00:49:17.633Z,5.35
2024-04-25T00:49:28.390Z,5.34
2024-04-25T00:49:39.399Z,5.35
2024-04-25T00:49:50.367Z,5.34
2024-04-25T00:50:01.402Z,5.34
2024-04-25T00:50:12.361Z,5.41
2024-04-25T00:50:22.878Z,5.37
2024-04-25T00:50:33.896Z,5.32
2024-04-25T00:50:44.481Z,5.35
2024-04-25T00:50:55.155Z,5.34
2024-04-25T00:51:06.189Z,5.31
2024-04-25T00:51:17.190Z,5.31
2024-04-25T00:51:28.200Z,5.32
2024-04-25T00:51:38.935Z,5.34
2024-04-25T00:51:49.949Z,5.38
2024-04-25T00:52:00.911Z,5.34
2024-04-25T00:52:11.933Z,5.34
2024-04-25T00:52:22.654Z,5.30
2024-04-25T00:52:33.659Z,5.32
2024-04-25T00:52:44.638Z,5.34
2024-04-25T00:52:55.775Z,5.35
2024-04-25T00:53:06.528Z,5.35
2024-04-25T00:53:17.027Z,5.32
2024-04-25T00:53:28.039Z,5.30
2024-04-25T00:53:39.111Z,5.31
2024-04-25T00:53:49.829Z,5.32
2024-04-25T00:54:00.866Z,5.34
2024-04-25T00:54:11.877Z,5.30
2024-04-25T00:54:22.888Z,5.31
2024-04-25T00:54:33.588Z,5.35
2024-04-25T00:54:44.616Z,5.34
2024-04-25T00:54:55.572Z,5.28
2024-04-25T00:55:06.611Z,5.30
2024-04-25T00:55:17.361Z,5.30
2024-04-25T00:55:27.934Z,5.30
2024-04-25T00:55:38.869Z,5.30
2024-04-25T00:55:49.929Z,5.31
2024-04-25T00:56:00.598Z,5.31
2024-04-25T00:56:11.645Z,5.30
2024-04-25T00:56:22.738Z,5.32
2024-04-25T00:56:33.214Z,5.28
2024-04-25T00:56:43.906Z,5.34
2024-04-25T00:56:54.931Z,5.32
2024-04-25T00:57:05.949Z,5.34
2024-04-25T00:57:16.954Z,5.30
2024-04-25T00:57:27.614Z,5.30
2024-04-25T00:57:38.660Z,5.32
2024-04-25T00:57:49.659Z,5.30
2024-04-25T00:58:00.749Z,5.30
2024-04-25T00:58:11.399Z,5.31
2024-04-25T00:58:22.436Z,5.28
2024-04-25T00:58:33.398Z,5.30
2024-04-25T00:58:44.420Z,5.31
2024-04-25T00:58:55.118Z,5.31
2024-04-25T00:59:06.165Z,5.30
2024-04-25T00:59:17.193Z,5.27
2024-04-25T00:59:28.197Z,5.28
2024-04-25T00:59:38.918Z,5.32
2024-04-25T00:59:49.433Z,5.25
2024-04-25T01:00:00.417Z,5.31
2024-04-25T01:00:11.442Z,5.28
2024-04-25T01:00:22.123Z,5.25
2024-04-25T01:00:33.227Z,5.35
2024-04-25T01:00:44.194Z,5.31
2024-04-25T01:00:55.222Z,5.31
2024-04-25T01:01:06.014Z,5.27
2024-04-25T01:01:16.497Z,5.25
2024-04-25T01:01:27.476Z,5.25
2024-04-25T01:01:38.489Z,5.30
2024-04-25T01:01:49.212Z,5.28
2024-04-25T01:02:00.254Z,5.32
2024-04-25T01:02:11.276Z,5.30
2024-04-25T01:02:22.430Z,5.27
2024-04-25T01:02:33.187Z,5.28
2024-04-25T01:02:43.818Z,5.30
2024-04-25T01:02:54.887Z,5.28
2024-04-25T01:03:05.468Z,5.28
2024-04-25T01:03:16.189Z,5.28
2024-04-25T01:03:27.365Z,5.30
2024-04-25T01:03:38.377Z,5.30
2024-04-25T01:03:48.901Z,5.31
2024-04-25T01:03:59.758Z,5.25
2024-04-25T01:04:10.297Z,5.30
2024-04-25T01:04:21.307Z,5.25
2024-04-25T01:04:31.851Z,5.28
2024-04-25T01:04:42.556Z,5.25
2024-04-25T01:04:53.052Z,5.28
2024-04-25T01:05:04.163Z,5.32
2024-04-25T01:05:14.645Z,5.31
2024-04-25T01:05:25.428Z,5.27
2024-04-25T01:05:36.025Z,5.23
2024-04-25T01:05:47.167Z,5.31
2024-04-25T01:05:57.643Z,5.28
2024-04-25T01:06:08.359Z,5.30
2024-04-25T01:06:19.386Z,5.27
2024-04-25T01:06:30.359Z,5.30
2024-04-25T01:06:41.405Z,5.25
2024-04-25T01:06:52.078Z,5.28
2024-04-25T01:07:03.120Z,5.30
2024-04-25T01:07:14.103Z,5.28
2024-04-25T01:07:25.139Z,5.28
2024-04-25T01:07:35.849Z,5.28
2024-04-25T01:07:46.898Z,5.27
2024-04-25T01:07:57.875Z,5.32
2024-04-25T01:08:08.975Z,5.28
2024-04-25T01:08:19.665Z,5.28
2024-04-25T01:08:30.763Z,5.25
2024-04-25T01:08:41.781Z,5.30
2024-04-25T01:08:52.759Z,5.27
2024-04-25T01:09:03.448Z,5.28
2024-04-25T01:09:14.486Z,5.30
2024-04-25T01:09:25.479Z,5.30
2024-04-25T01:09:36.485Z,5.23
2024-04-25T01:09:47.201Z,5.28
2024-04-25T01:09:58.296Z,5.25
2024-04-25T01:10:09.255Z,5.30
2024-04-25T01:10:20.349Z,5.27
2024-04-25T01:10:31.005Z,5.30
2024-04-25T01:10:42.106Z,5.28
2024-04-25T01:10:52.648Z,5.30
2024-04-25T01:11:03.693Z,5.34
2024-04-25T01:11:14.478Z,5.28
2024-04-25T01:11:25.092Z,5.31
2024-04-25T01:11:36.185Z,5.28
2024-04-25T01:11:46.837Z,5.28
2024-04-25T01:11:57.564Z,5.30
2024-04-25T01:12:08.144Z,5.30
2024-04-25T01:12:19.088Z,5.35
2024-04-25T01:12:30.122Z,5.30
2024-04-25T01:12:40.785Z,5.32
2024-04-25T01:12:51.875Z,5.32
2024-04-25T01:13:02.896Z,5.31
2024-04-25T01:13:13.922Z,5.30
2024-04-25T01:13:24.596Z,5.28
2024-04-25T01:13:35.693Z,5.27
2024-04-25T01:13:46.638Z,5.31
2024-04-25T01:13:57.689Z,5.28
2024-04-25T01:14:08.471Z,5.31
2024-04-25T01:14:18.965Z,5.30
2024-04-25T01:14:29.945Z,5.32
2024-04-25T01:14:40.987Z,5.32
2024-04-25T01:14:51.653Z,5.34
2024-04-25T01:15:02.720Z,5.31
2024-04-25T01:15:13.769Z,5.23
2024-04-25T01:15:24.772Z,5.28
2024-04-25T01:15:35.461Z,5.31
2024-04-25T01:15:46.570Z,5.28
2024-04-25T01:15:57.540Z,5.35
2024-04-25T01:16:08.590Z,5.32
2024-04-25T01:16:19.340Z,5.32
2024-04-25T01:16:29.964Z,5.27
2024-04-25T01:16:40.923Z,5.32
2024-04-25T01:16:51.982Z,5.30
2024-04-25T01:17:02.660Z,5.35
2024-04-25T01:17:13.782Z,5.27
2024-04-25T01:17:24.823Z,5.31
2024-04-25T01:17:35.411Z,5.32
2024-04-25T01:17:46.250Z,5.34
2024-04-25T01:17:56.897Z,5.32
2024-04-25T01:18:07.856Z,5.35
2024-04-25T01:18:18.923Z,5.31
2024-04-25T01:18:29.583Z,5.35
2024-04-25T01:18:40.710Z,5.32
2024-04-25T01:18:51.656Z,5.31
2024-04-25T01:19:02.754Z,5.34
2024-04-25T01:19:13.490Z,5.37
2024-04-25T01:19:24.574Z,5.38
2024-04-25T01:19:35.578Z,5.34
2024-04-25T01:19:46.596Z,5.31
2024-04-25T01:19:57.280Z,5.40
2024-04-25T01:20:08.600Z,5.37
2024-04-25T01:20:19.088Z,5.40
2024-04-25T01:20:30.175Z,5.38
2024-04-25T01:20:41.009Z,5.38
2024-04-25T01:20:51.627Z,5.37
2024-04-25T01:21:02.570Z,5.34
2024-04-25T01:21:13.621Z,5.37
2024-04-25T01:21:24.323Z,5.40
2024-04-25T01:21:35.361Z,5.37
2024-04-25T01:21:46.386Z,5.35
2024-04-25T01:21:57.415Z,5.40
2024-04-25T01:22:08.122Z,5.34
2024-04-25T01:22:19.206Z,5.41
2024-04-25T01:22:30.160Z,5.40
2024-04-25T01:22:41.289Z,5.40
2024-04-25T01:22:51.910Z,5.35
2024-04-25T01:23:02.974Z,5.34
2024-04-25T01:23:13.966Z,5.37
2024-04-25T01:23:25.010Z,5.37
2024-04-25T01:23:35.792Z,5.41
2024-04-25T01:23:46.297Z,5.40
2024-04-25T01:23:57.259Z,5.37
2024-04-25T01:24:08.359Z,5.38
2024-04-25T01:24:19.021Z,5.41
2024-04-25T01:24:30.110Z,5.35
2024-04-25T01:24:41.052Z,5.34
2024-04-25T01:24:52.119Z,5.41
2024-04-25T01:25:02.799Z,5.41
2024-04-25T01:25:13.845Z,5.35
2024-04-25T01:25:24.887Z,5.41
2024-04-25T01:25:35.889Z,5.37
2024-04-25T01:25:46.613Z,5.40
2024-04-25T01:25:57.664Z,5.41
2024-04-25T01:26:08.664Z,5.40
2024-04-25T01:26:19.677Z,5.37
2024-04-25T01:26:30.417Z,5.40
2024-04-25T01:26:41.001Z,5.37
2024-04-25T01:26:51.941Z,5.35
2024-04-25T01:27:02.986Z,5.40
2024-04-25T01:27:13.770Z,5.48
2024-04-25T01:27:24.303Z,5.37
2024-04-25T01:27:35.345Z,5.43
2024-04-25T01:27:46.457Z,5.43
2024-04-25T01:27:57.134Z,5.41
2024-04-25T01:28:08.203Z,5.41
2024-04-25T01:28:19.187Z,5.45
2024-04-25T01:28:30.235Z,5.40
2024-04-25T01:28:40.904Z,5.43
2024-04-25T01:28:51.950Z,5.37
2024-04-25T01:29:02.940Z,5.41
2024-04-25T01:29:13.968Z,5.45
2024-04-25T01:29:24.627Z,5.49
2024-04-25T01:29:35.754Z,5.40
2024-04-25T01:29:46.295Z,5.43
2024-04-25T01:29:57.306Z,5.43
2024-04-25T01:30:07.997Z,5.45
2024-04-25T01:30:19.054Z,5.41
2024-04-25T01:30:30.024Z,5.38
2024-04-25T01:30:41.064Z,5.43
2024-04-25T01:30:51.802Z,5.46
2024-04-25T01:31:02.279Z,5.45
2024-04-25T01:31:13.272Z,5.45
2024-04-25T01:31:24.310Z,5.46
2024-04-25T01:31:34.975Z,5.48
2024-04-25T01:31:46.034Z,5.46
2024-04-25T01:31:57.009Z,5.45
2024-04-25T01:32:08.023Z,5.41
2024-04-25T01:32:18.748Z,5.48
2024-04-25T01:32:30.040Z,5.43
2024-04-25T01:32:40.674Z,5.48
2024-04-25T01:32:51.268Z,5.43
2024-04-25T01:33:02.100Z,5.46
2024-04-25T01:33:12.840Z,5.41
2024-04-25T01:33:23.451Z,5.41
2024-04-25T01:33:34.130Z,5.45
2024-04-25T01:33:44.952Z,5.48
2024-04-25T01:33:55.560Z,5.46
2024-04-25T01:34:06.067Z,5.48
2024-04-25T01:34:17.102Z,5.45
2024-04-25T01:34:27.849Z,5.46
2024-04-25T01:34:38.328Z,5.49
2024-04-25T01:34:49.303Z,5.45
2024-04-25T01:35:00.315Z,5.53
2024-04-25T01:35:11.042Z,5.50
2024-04-25T01:35:21.606Z,5.48
2024-04-25T01:35:32.612Z,5.48
2024-04-25T01:35:43.692Z,5.43
2024-04-25T01:35:54.363Z,5.52
2024-04-25T01:36:05.402Z,5.46
2024-04-25T01:36:16.410Z,5.48
2024-04-25T01:36:26.940Z,5.45
2024-04-25T01:36:37.634Z,5.48
2024-04-25T01:36:48.688Z,5.48
2024-04-25T01:36:59.692Z,5.46
2024-04-25T01:37:10.704Z,5.46
2024-04-25T01:37:21.377Z,5.48
2024-04-25T01:37:32.426Z,5.50
2024-04-25T01:37:43.397Z,5.48
2024-04-25T01:37:54.460Z,5.46
2024-04-25T01:38:05.166Z,5.46
2024-04-25T01:38:15.710Z,5.46
2024-04-25T01:38:26.681Z,5.50
2024-04-25T01:38:37.737Z,5.48
2024-04-25T01:38:48.411Z,5.50
2024-04-25T01:38:59.478Z,5.49
2024-04-25T01:39:10.446Z,5.48
2024-04-25T01:39:21.461Z,5.45
2024-04-25T01:39:32.134Z,5.48
2024-04-25T01:39:43.195Z,5.46
2024-04-25T01:39:54.191Z,5.52
2024-04-25T01:40:05.210Z,5.48
2024-04-25T01:40:15.878Z,5.49
2024-04-25T01:40:26.933Z,5.53
2024-04-25T01:40:37.902Z,5.46
2024-04-25T01:40:48.920Z,5.48
2024-04-25T01:40:59.592Z,5.53
2024-04-25T01:41:10.639Z,5.49
2024-04-25T01:41:21.623Z,5.46
2024-04-25T01:41:32.689Z,5.49
2024-04-25T01:41:43.402Z,5.52
2024-04-25T01:41:54.440Z,5.49
2024-04-25T01:42:05.411Z,5.45
2024-04-25T01:42:16.444Z,5.52
2024-04-25T01:42:27.111Z,5.50
2024-04-25T01:42:38.210Z,5.50
2024-04-25T01:42:49.233Z,5.46
2024-04-25T01:43:00.260Z,5.43
2024-04-25T01:43:11.002Z,5.48
2024-04-25T01:43:21.529Z,5.49
2024-04-25T01:43:32.480Z,5.52
2024-04-25T01:43:43.464Z,5.49
2024-04-25T01:43:54.144Z,5.50
2024-04-25T01:44:05.246Z,5.45
2024-04-25T01:44:16.308Z,5.49
2024-04-25T01:44:26.772Z,5.46
2024-04-25T01:44:37.523Z,5.49
2024-04-25T01:44:48.048Z,5.45
2024-04-25T01:44:58.989Z,5.46
2024-04-25T01:45:10.050Z,5.53
2024-04-25T01:45:20.750Z,5.48
2024-04-25T01:45:31.802Z,5.48
2024-04-25T01:45:42.790Z,5.49
2024-04-25T01:45:53.842Z,5.49
2024-04-25T01:46:04.549Z,5.52
2024-04-25T01:46:15.046Z,5.45
2024-04-25T01:46:26.090Z,5.48
2024-04-25T01:46:37.095Z,5.49
2024-04-25T01:46:47.825Z,5.45
2024-04-25T01:46:58.325Z,5.48
2024-04-25T01:47:09.405Z,5.48
2024-04-25T01:47:19.982Z,5.49
2024-04-25T01:47:30.859Z,5.56
2024-04-25T01:47:41.484Z,5.50
2024-04-25T01:47:52.600Z,5.53
2024-04-25T01:48:03.198Z,5.48
2024-04-25T01:48:14.047Z,5.52
2024-04-25T01:48:24.853Z,5.52
2024-04-25T01:48:35.571Z,5.49
2024-04-25T01:48:46.151Z,5.49
2024-04-25T01:48:56.915Z,5.49
2024-04-25T01:49:07.565Z,5.50
2024-04-25T01:49:18.576Z,5.52
2024-04-25T01:49:29.570Z,5.48
2024-04-25T01:49:40.242Z,5.57
2024-04-25T01:49:51.321Z,5.50
2024-04-25T01:50:02.330Z,5.49
2024-04-25T01:50:13.348Z,5.49
2024-04-25T01:50:24.068Z,5.49
2024-04-25T01:50:35.288Z,5.46
2024-04-25T01:50:45.744Z,5.53
2024-04-25T01:50:56.838Z,5.49
2024-04-25T01:51:07.531Z,5.50
2024-04-25T01:51:18.608Z,5.41
2024-04-25T01:51:29.607Z,5.50
2024-04-25T01:51:40.632Z,5.55
2024-04-25T01:51:51.324Z,5.50
2024-04-25T01:52:02.383Z,5.53
2024-04-25T01:52:13.434Z,5.48
2024-04-25T01:52:24.443Z,5.52
2024-04-25T01:52:35.128Z,5.43
2024-04-25T01:52:46.211Z,5.45
2024-04-25T01:52:57.180Z,5.48
2024-04-25T01:53:08.181Z,5.49
2024-04-25T01:53:18.953Z,5.53
2024-04-25T01:53:29.537Z,5.49
2024-04-25T01:53:40.465Z,5.50
2024-04-25T01:53:51.488Z,5.50
2024-04-25T01:54:02.194Z,5.52
2024-04-25T01:54:13.233Z,5.48
2024-04-25T01:54:24.176Z,5.53
2024-04-25T01:54:35.188Z,5.49
2024-04-25T01:54:45.894Z,5.55
2024-04-25T01:54:56.931Z,5.49
2024-04-25T01:55:07.926Z,5.50
2024-04-25T01:55:18.969Z,5.50
2024-04-25T01:55:29.653Z,5.50
2024-04-25T01:55:40.701Z,5.45
2024-04-25T01:55:51.727Z,5.55
2024-04-25T01:56:02.725Z,5.55
2024-04-25T01:56:13.440Z,5.52
2024-04-25T01:56:24.546Z,5.50
2024-04-25T01:56:37.272Z,5.49
2024-04-25T01:56:46.441Z,5.55
2024-04-25T01:56:57.151Z,5.50
2024-04-25T01:57:07.675Z,5.55
2024-04-25T01:57:18.682Z,5.53
2024-04-25T01:57:29.691Z,5.55
2024-04-25T01:57:40.375Z,5.53
2024-04-25T01:57:51.429Z,5.48
2024-04-25T01:58:02.429Z,5.53
2024-04-25T01:58:13.489Z,5.52
2024-04-25T01:58:24.120Z,5.49
2024-04-25T01:58:35.250Z,5.52
2024-04-25T01:58:46.191Z,5.52
2024-04-25T01:58:57.247Z,5.55
2024-04-25T01:59:07.975Z,5.57
2024-04-25T01:59:19.078Z,5.59
2024-04-25T01:59:30.094Z,5.52
2024-04-25T01:59:41.121Z,5.50
2024-04-25T01:59:51.752Z,5.53
2024-04-25T02:00:02.811Z,5.53
2024-04-25T02:00:13.767Z,5.50
2024-04-25T02:00:24.784Z,5.49
2024-04-25T02:00:35.611Z,5.56
2024-04-25T02:00:46.149Z,5.56
2024-04-25T02:00:57.100Z,5.56
2024-04-25T02:01:08.111Z,5.56
2024-04-25T02:01:18.777Z,5.57
2024-04-25T02:01:29.362Z,5.56
2024-04-25T02:01:40.347Z,5.56
2024-04-25T02:01:51.364Z,5.60
2024-04-25T02:02:02.026Z,5.57
2024-04-25T02:02:13.115Z,5.60
2024-04-25T02:02:24.177Z,5.57
2024-04-25T02:02:34.734Z,5.56
2024-04-25T02:02:45.655Z,5.63
2024-04-25T02:02:56.370Z,5.56
2024-04-25T02:03:07.363Z,5.56
2024-04-25T02:03:18.388Z,5.56
2024-04-25T02:03:29.088Z,5.57
2024-04-25T02:03:40.117Z,5.57
2024-04-25T02:03:51.101Z,5.60
2024-04-25T02:04:02.095Z,5.56
2024-04-25T02:04:12.852Z,5.55
2024-04-25T02:04:23.360Z,5.59
2024-04-25T02:04:34.359Z,5.63
2024-04-25T02:04:45.401Z,5.57
2024-04-25T02:04:56.072Z,5.59
2024-04-25T02:05:07.156Z,5.56
2024-04-25T02:05:18.164Z,5.60
2024-04-25T02:05:29.202Z,5.60
2024-04-25T02:05:42.200Z,5.64
2024-04-25T02:05:50.962Z,5.57
2024-04-25T02:06:01.940Z,5.60
2024-04-25T02:06:12.998Z,5.57
2024-04-25T02:06:23.719Z,5.59
2024-04-25T02:06:34.262Z,5.56
2024-04-25T02:06:45.226Z,5.57
2024-04-25T02:06:56.238Z,5.64
2024-04-25T02:07:06.934Z,5.66
2024-04-25T02:07:18.027Z,5.57
2024-04-25T02:07:28.988Z,5.57
2024-04-25T02:07:40.007Z,5.66
2024-04-25T02:07:50.672Z,5.59
2024-04-25T02:08:01.743Z,5.60
2024-04-25T02:08:12.815Z,5.60
2024-04-25T02:08:23.317Z,5.57
2024-04-25T02:08:34.051Z,5.59
2024-04-25T02:08:44.807Z,5.59
2024-04-25T02:08:55.771Z,5.59
2024-04-25T02:09:06.774Z,5.55
2024-04-25T02:09:17.463Z,5.59
2024-04-25T02:09:28.554Z,5.57
2024-04-25T02:09:39.522Z,5.67
2024-04-25T02:09:50.533Z,5.56
2024-04-25T02:10:01.257Z,5.63
2024-04-25T02:10:11.936Z,5.56
2024-04-25T02:10:22.925Z,5.63
2024-04-25T02:10:33.983Z,5.53
2024-04-25T02:10:44.674Z,5.55
2024-04-25T02:10:55.744Z,5.60
2024-04-25T02:11:06.935Z,5.66
2024-04-25T02:11:17.547Z,5.60
2024-04-25T02:11:28.350Z,5.57
2024-04-25T02:11:38.920Z,5.59
2024-04-25T02:11:49.955Z,5.64
2024-04-25T02:12:01.157Z,5.57
2024-04-25T02:12:11.963Z,5.60
2024-04-25T02:12:23.000Z,5.59
2024-04-25T02:12:33.997Z,5.56
2024-04-25T02:12:45.016Z,5.67
2024-04-25T02:12:55.732Z,5.60
2024-04-25T02:13:06.790Z,5.64
2024-04-25T02:13:17.749Z,5.63
2024-04-25T02:13:28.826Z,5.63
2024-04-25T02:13:39.454Z,5.63
2024-04-25T02:13:50.516Z,5.59
2024-04-25T02:14:01.482Z,5.57
2024-04-25T02:14:12.518Z,5.59
2024-04-25T02:14:23.332Z,5.63
2024-04-25T02:14:34.407Z,5.64
2024-04-25T02:14:45.342Z,5.59
2024-04-25T02:14:56.379Z,5.64
2024-04-25T02:15:07.057Z,5.59
2024-04-25T02:15:18.118Z,5.57
2024-04-25T02:15:29.078Z,5.63
2024-04-25T02:15:40.081Z,5.63
2024-04-25T02:15:50.757Z,5.66
2024-04-25T02:16:01.800Z,5.63
2024-04-25T02:16:12.789Z,5.56
2024-04-25T02:16:23.833Z,5.60
2024-04-25T02:16:34.515Z,5.63
2024-04-25T02:16:45.596Z,5.64
2024-04-25T02:16:56.524Z,5.57
2024-04-25T02:17:07.548Z,5.56
2024-04-25T02:17:18.289Z,5.66
2024-04-25T02:17:28.865Z,5.57
2024-04-25T02:17:39.429Z,5.64
2024-04-25T02:17:50.102Z,5.56
2024-04-25T02:18:01.072Z,5.64
2024-04-25T02:18:11.843Z,5.66
2024-04-25T02:18:22.382Z,5.63
2024-04-25T02:18:33.556Z,5.64
2024-04-25T02:18:44.369Z,5.60
2024-04-25T02:18:54.930Z,5.55
2024-04-25T02:19:05.897Z,5.66
2024-04-25T02:19:16.945Z,5.63
2024-04-25T02:19:27.673Z,5.60
2024-04-25T02:19:38.158Z,5.67
2024-04-25T02:19:49.099Z,5.64
2024-04-25T02:20:00.295Z,5.66
2024-04-25T02:20:11.014Z,5.60
2024-04-25T02:20:22.098Z,5.67
2024-04-25T02:20:33.158Z,5.60
2024-04-25T02:20:43.660Z,5.57
2024-04-25T02:20:54.346Z,5.64
2024-04-25T02:21:05.425Z,5.64
2024-04-25T02:21:16.443Z,5.63
2024-04-25T02:21:27.418Z,5.66
2024-04-25T02:21:38.122Z,5.66
2024-04-25T02:21:49.183Z,5.63
2024-04-25T02:22:00.148Z,5.64
2024-04-25T02:22:11.218Z,5.56
2024-04-25T02:22:21.931Z,5.68
2024-04-25T02:22:32.982Z,5.63
2024-04-25T02:22:43.907Z,5.63
2024-04-25T02:22:54.975Z,5.66
2024-04-25T02:23:05.650Z,5.70
2024-04-25T02:23:16.722Z,5.60
2024-04-25T02:23:27.711Z,5.68
2024-04-25T02:23:38.826Z,5.70
2024-04-25T02:23:49.520Z,5.59
2024-04-25T02:24:00.206Z,5.68
2024-04-25T02:24:11.182Z,5.66
2024-04-25T02:24:22.209Z,5.64
2024-04-25T02:24:32.904Z,5.64
2024-04-25T02:24:43.990Z,5.66